Aeroporto :
LOGIN :

Iscrizione | Disclaimer

   EN    FR    IT 

 










Sommario :    VFR   VFR Marginale   IFR   IFR Intensivo   IFR Molto Intensivo
Visibilità : 
Base nubi : 
>= 8 km
>= 3000ft
5 / 8 km
1000 / 3000 ft
1500m / 5 km
500 / 1000 ft
800 / 1500m
200 / 500 ft
< 800m
< 200 ft
Simboli :   Temporali  Nebbia  Neve Forte  Precipitazioni Forti  Vento > 20 kt
SIGMETs :   Varie  Temporali  Ghiacco  Turbolenza  Onda orograficha  Ceneri Vulcaniche






- Altitudine del aeroporto : 82 ft
- Codice IATA : QIE


LFMI - Istres

ULTIMO METAR :
  • 271130Z AUTO 32019KT CAVOK 21/06 Q1008 TEMPO 33018G28KT

METARs OBSOLETI :
  • 271100Z AUTO 32023KT CAVOK 20/06 Q1008 TEMPO 33020G30KT
  • 271030Z AUTO 32020KT CAVOK 20/06 Q1008 TEMPO 33018G28KT
  • 271000Z AUTO 31017KT CAVOK 20/07 Q1008 TEMPO 33018G28KT
  • 270930Z AUTO 32016KT 9999 FEW045 19/09 Q1008 TEMPO 33018G28KT
  • 270900Z AUTO 31017KT CAVOK 18/09 Q1008 NOSIG

TAF TAF LFMI
Valido dal 27 a 09 ore il 28 a 09 ore UTC


270800Z 2709/2809 31015KT CAVOK TX22/2714Z TN16/2805Z
PROB40
TEMPO 2711/2716 33020G30KT
BECMG 2800/2802 VRB05KT
PROB30
TEMPO 2806/2809 -SHRA SCT014 SCT025TCU
BECMG 2806/2808 28015KT



MetMap, La meteo Aeronautica in un colpo d'occhio ! - Copyright ORBIFLY Dicembre 2007 - Disclaimer

ORBIFLY MET'MAP TEAM :

Programmazione e sviluppo : Alexandra Zaïnal
Concezione : Baudouin d'Aumeries
Supporto tecnico e logistico : Manuel Goepfert
Aiuto : Marc-Olivier Méhu
Aiuto per la traduzione : Arnaldo La Scala




FONTI E CREDITI :

   NOAA